Airfield :
LOGIN :

Register | Disclaimer

   EN    FR    IT 

 










Legend :    VFR   Marginal VFR   IFR   Intensive IFR   Very Intensive IFR
Visi :
Ceiling :
>= 8 km
>= 3000ft
5 to 8 km
1000 to 3000 ft
1500m to 5 km
500 to 1000 ft
800 to 1500m
200 to 500 ft
< 800m
< 200 ft
Symbols :   Thunderstorms  Fog  Heavy snow  Heavy precipitations  Wind > 20 kt
SIGMETs :     Misc.  Thunderstorms  Icing  Turbulence  Mountain Waves  Volcanic Ashes






- Airport Elevation : 1766 ft


ETHL - Laupheim AB

CURRENT METAR :
  • 151835Z 26010KT 8000 -RA FEW007 SCT020 BKN025 12/10 Q1010 RERA BLU BLU TEMPO WHT

EXPIRED METARs :
  • 151820Z 25011KT 6000 RA FEW007 SCT020 BKN025 12/11 Q1010 WHT BLU TEMPO WHT
  • 151747Z 24012KT 7000 RA SCT020 BKN025 13/11 Q1010 WHT BLU TEMPO WHT
  • 151720Z 26009KT 9999 -RA SCT020 BKN025 14/11 Q1009 BLU BLU TEMPO WHT
  • 151620Z 27010KT 9999 FEW018 BKN025 15/11 Q1008 BLU BLU TEMPO WHT

TAF TAF ETHL
Valid from the 15 at 17:00 until the 16 at 02:00 UTC


151622Z 1517/1602 25010KT 9999 NSW BKN030 BKN060
TEMPO 1517/1600 24012G25KT 5000 RA FEW010 BKN020



MET'MAP, your aeronautical weather chart ! - Copyright ORBIFLY December 2007 - Disclaimer

ORBIFLY MET'MAP TEAM :

Programming & Development : Alexandra Zaïnal
Concept & Development : Baudouin d'Aumeries
Co-Development & Prog : Marc-Olivier Méhu
Technical & hardware support : Manuel Goepfert

Contact : metmap@orbifly.com




SOURCES & CREDITS :

   NOAA